createdAt,value
2019-01-18T00:01:36.620Z,86.93
2019-01-18T00:04:07.220Z,86.93
2019-01-18T00:06:36.359Z,87.13
2019-01-18T00:09:08.193Z,87.13
2019-01-18T00:11:37.343Z,87.21
2019-01-18T00:14:06.860Z,87.39
2019-01-18T00:16:36.651Z,88.06
2019-01-18T00:19:06.126Z,87.17
2019-01-18T00:21:35.375Z,87.64
2019-01-18T00:24:04.646Z,87.85
2019-01-18T00:26:33.908Z,87.85
2019-01-18T00:29:03.162Z,87.24
2019-01-18T00:31:33.076Z,87.38
2019-01-18T00:34:02.383Z,88.09
2019-01-18T00:36:31.606Z,88.09
2019-01-18T00:39:00.714Z,87.26
2019-01-18T00:41:30.339Z,87.26
2019-01-18T00:43:59.588Z,87.18
2019-01-18T00:46:28.697Z,87.51
2019-01-18T00:48:57.851Z,87.49
2019-01-18T00:51:27.209Z,87.50
2019-01-18T00:53:56.661Z,87.33
2019-01-18T00:56:26.331Z,87.33
2019-01-18T00:58:55.408Z,87.49
2019-01-18T01:01:24.954Z,87.52
2019-01-18T01:03:54.204Z,87.87
2019-01-18T01:06:23.503Z,87.04
2019-01-18T01:08:52.612Z,87.57
2019-01-18T01:11:22.192Z,87.85
2019-01-18T01:13:51.545Z,87.64
2019-01-18T01:16:20.960Z,87.64
2019-01-18T01:18:50.249Z,87.43
2019-01-18T01:21:19.578Z,87.32
2019-01-18T01:23:48.852Z,87.34
2019-01-18T01:26:17.931Z,86.65
2019-01-18T01:28:47.329Z,86.52
2019-01-18T01:31:16.664Z,86.52
2019-01-18T01:33:45.933Z,86.63
2019-01-18T01:36:15.317Z,86.37
2019-01-18T01:38:44.638Z,86.81
2019-01-18T01:41:13.806Z,86.56
2019-01-18T01:43:42.892Z,86.61
2019-01-18T01:46:11.977Z,86.49
2019-01-18T01:48:41.062Z,86.76
2019-01-18T01:51:10.184Z,86.89
2019-01-18T01:53:39.279Z,87.44
2019-01-18T01:56:08.675Z,87.44
2019-01-18T01:58:37.801Z,87.17
2019-01-18T02:01:06.972Z,87.17
2019-01-18T02:03:36.369Z,86.16
2019-01-18T02:06:05.453Z,86.85
2019-01-18T02:08:34.628Z,86.25
2019-01-18T02:11:04.201Z,85.79
2019-01-18T02:13:33.274Z,85.58
2019-01-18T02:16:02.409Z,85.58
2019-01-18T02:18:31.637Z,84.75
2019-01-18T02:21:00.868Z,84.75
2019-01-18T02:23:30.167Z,85.55
2019-01-18T02:25:59.381Z,86.05
2019-01-18T02:28:28.743Z,86.05
2019-01-18T02:30:57.945Z,85.69
2019-01-18T02:33:27.313Z,85.69
2019-01-18T02:35:56.537Z,85.25
2019-01-18T02:38:25.777Z,86.21
2019-01-18T02:40:55.090Z,86.21
2019-01-18T02:43:24.853Z,85.89
2019-01-18T02:45:54.314Z,85.76
2019-01-18T02:48:23.523Z,85.61
2019-01-18T02:50:52.917Z,86.32
2019-01-18T02:53:22.030Z,86.32
2019-01-18T02:55:51.275Z,86.12
2019-01-18T02:58:20.330Z,86.12
2019-01-18T03:00:49.515Z,86.73
2019-01-18T03:03:18.814Z,86.80
2019-01-18T03:05:47.894Z,86.68
2019-01-18T03:08:17.074Z,87.25
2019-01-18T03:10:46.272Z,86.88
2019-01-18T03:13:15.371Z,87.61
2019-01-18T03:15:44.688Z,88.14
2019-01-18T03:18:13.774Z,87.01
2019-01-18T03:20:43.171Z,87.54
2019-01-18T03:23:12.557Z,87.75
2019-01-18T03:25:41.612Z,87.49
2019-01-18T03:28:10.736Z,87.49
2019-01-18T03:30:39.931Z,87.34
2019-01-18T03:33:09.189Z,87.33
2019-01-18T03:35:38.455Z,87.86
2019-01-18T03:38:07.619Z,87.92
2019-01-18T03:40:36.878Z,88.51
2019-01-18T03:43:06.134Z,88.51
2019-01-18T03:45:35.309Z,88.30
2019-01-18T03:48:04.589Z,88.67
2019-01-18T03:50:33.665Z,88.67
2019-01-18T03:53:02.980Z,89.04
2019-01-18T03:55:32.409Z,89.37
2019-01-18T03:58:01.880Z,88.92
2019-01-18T04:00:31.674Z,88.41
2019-01-18T04:03:01.178Z,88.46
2019-01-18T04:05:30.407Z,88.57
2019-01-18T04:07:59.859Z,88.55
2019-01-18T04:10:28.992Z,89.05
2019-01-18T04:12:58.090Z,88.99
2019-01-18T04:15:27.168Z,88.96
2019-01-18T04:17:56.442Z,88.63
2019-01-18T04:20:25.662Z,88.25
2019-01-18T04:22:54.751Z,88.97
2019-01-18T04:25:31.550Z,88.80
2019-01-18T04:28:01.000Z,88.80
2019-01-18T04:30:33.690Z,88.46
2019-01-18T04:33:01.353Z,88.32
2019-01-18T04:35:30.502Z,88.16
2019-01-18T04:37:59.685Z,87.99
2019-01-18T04:40:29.098Z,88.50
2019-01-18T04:42:58.195Z,88.50
2019-01-18T04:45:27.255Z,88.54
2019-01-18T04:47:56.615Z,88.13
2019-01-18T04:50:27.551Z,88.05
2019-01-18T04:52:57.044Z,88.05
2019-01-18T04:55:26.169Z,88.12
2019-01-18T04:57:55.504Z,88.50
2019-01-18T05:00:26.670Z,88.57
2019-01-18T05:02:55.855Z,88.57
2019-01-18T05:05:25.167Z,88.56
2019-01-18T05:07:54.272Z,88.62
2019-01-18T05:10:24.687Z,88.62
2019-01-18T05:12:53.822Z,88.67
2019-01-18T05:15:25.069Z,88.67
2019-01-18T05:17:54.246Z,87.63
2019-01-18T05:20:23.459Z,88.04
2019-01-18T05:22:52.588Z,88.35
2019-01-18T05:25:21.806Z,88.14
2019-01-18T05:27:50.981Z,87.97
2019-01-18T05:30:25.010Z,88.23
2019-01-18T05:32:54.181Z,88.33
2019-01-18T05:35:23.601Z,88.81
2019-01-18T05:37:52.745Z,88.81
2019-01-18T05:40:21.862Z,89.00
2019-01-18T05:42:51.179Z,87.86
2019-01-18T05:45:21.433Z,88.45
2019-01-18T05:47:50.747Z,88.11
2019-01-18T05:50:22.251Z,88.11
2019-01-18T05:52:51.476Z,88.48
2019-01-18T05:55:20.871Z,88.86
2019-01-18T05:57:50.870Z,88.87
2019-01-18T06:00:28.864Z,88.81
2019-01-18T06:02:58.035Z,88.78
2019-01-18T06:05:28.792Z,88.76
2019-01-18T06:07:58.105Z,88.91
2019-01-18T06:10:27.215Z,88.91
2019-01-18T06:12:56.464Z,88.47
2019-01-18T06:15:25.569Z,88.47
2019-01-18T06:17:54.965Z,88.75
2019-01-18T06:20:24.291Z,89.07
2019-01-18T06:22:53.565Z,89.07
2019-01-18T06:25:22.792Z,89.76
2019-01-18T06:27:51.894Z,90.06
2019-01-18T06:30:21.055Z,89.08
2019-01-18T06:32:50.153Z,88.80
2019-01-18T06:35:19.536Z,88.31
2019-01-18T06:37:48.837Z,87.32
2019-01-18T06:40:18.475Z,87.32
2019-01-18T06:42:47.558Z,86.79
2019-01-18T06:45:18.410Z,87.27
2019-01-18T06:47:47.718Z,87.35
2019-01-18T06:50:18.530Z,87.35
2019-01-18T06:52:47.793Z,87.37
2019-01-18T06:55:17.095Z,88.04
2019-01-18T06:57:46.339Z,88.33
2019-01-18T07:00:27.407Z,88.33
2019-01-18T07:02:56.536Z,88.39
2019-01-18T07:05:25.768Z,88.39
2019-01-18T07:07:54.880Z,88.36
2019-01-18T07:10:24.307Z,88.90
2019-01-18T07:12:53.591Z,89.64
2019-01-18T07:15:23.087Z,89.64
2019-01-18T07:17:52.296Z,89.96
2019-01-18T07:20:21.760Z,90.28
2019-01-18T07:22:51.246Z,90.09
2019-01-18T07:25:31.574Z,91.48
2019-01-18T07:28:00.704Z,91.48
2019-01-18T07:30:40.969Z,90.82
2019-01-18T07:33:12.625Z,90.76
2019-01-18T07:35:42.036Z,90.76
2019-01-18T07:38:11.106Z,91.13
2019-01-18T07:40:40.202Z,90.84
2019-01-18T07:43:09.630Z,90.84
2019-01-18T07:45:38.753Z,91.29
2019-01-18T07:48:08.243Z,91.29
2019-01-18T07:50:38.440Z,91.42
2019-01-18T07:53:08.146Z,91.42
2019-01-18T07:55:37.538Z,91.69
2019-01-18T07:58:06.593Z,91.28
2019-01-18T08:00:35.833Z,90.98
2019-01-18T08:03:05.246Z,91.18
2019-01-18T08:05:34.448Z,91.26
2019-01-18T08:08:03.788Z,91.50
2019-01-18T08:10:32.978Z,91.50
2019-01-18T08:13:02.107Z,91.65
2019-01-18T08:15:31.357Z,91.73
2019-01-18T08:18:00.424Z,91.73
2019-01-18T08:20:31.053Z,91.84
2019-01-18T08:23:01.023Z,91.01
2019-01-18T08:25:30.212Z,91.01
2019-01-18T08:27:59.711Z,90.83
2019-01-18T08:30:31.551Z,92.58
2019-01-18T08:33:00.598Z,91.41
2019-01-18T08:35:31.436Z,89.19
2019-01-18T08:38:00.510Z,89.19
2019-01-18T08:40:38.031Z,88.41
2019-01-18T08:43:09.344Z,89.87
2019-01-18T08:45:41.604Z,89.87
2019-01-18T08:48:10.963Z,87.41
2019-01-18T08:50:41.094Z,85.56
2019-01-18T08:53:10.383Z,85.56
2019-01-18T08:55:39.503Z,83.10
2019-01-18T08:58:08.761Z,83.10
2019-01-18T09:00:38.095Z,81.76
2019-01-18T09:03:07.438Z,81.37
2019-01-18T09:05:37.267Z,78.64
2019-01-18T09:08:06.402Z,78.55
2019-01-18T09:10:35.749Z,78.55
2019-01-18T09:13:04.833Z,78.71
2019-01-18T09:15:34.079Z,77.30
2019-01-18T09:18:03.206Z,76.84
2019-01-18T09:20:32.458Z,77.25
2019-01-18T09:23:01.665Z,76.80
2019-01-18T09:25:30.965Z,76.17
2019-01-18T09:28:00.313Z,76.25
2019-01-18T09:30:33.192Z,76.00
2019-01-18T09:33:03.513Z,75.07
2019-01-18T09:35:33.171Z,74.82
2019-01-18T09:38:02.319Z,74.51
2019-01-18T09:40:34.150Z,74.87
2019-01-18T09:43:03.200Z,74.14
2019-01-18T09:45:33.909Z,74.92
2019-01-18T09:48:03.053Z,74.47
2019-01-18T09:50:33.281Z,73.93
2019-01-18T09:53:03.350Z,74.08
2019-01-18T09:55:32.430Z,74.68
2019-01-18T09:58:01.919Z,74.69
2019-01-18T10:00:33.610Z,74.36
2019-01-18T10:03:03.159Z,74.54
2019-01-18T10:05:32.933Z,74.89
2019-01-18T10:08:02.331Z,73.47
2019-01-18T10:10:31.728Z,73.59
2019-01-18T10:13:01.079Z,73.00
2019-01-18T10:15:41.976Z,72.38
2019-01-18T10:18:11.116Z,72.86
2019-01-18T10:20:40.339Z,73.08
2019-01-18T10:23:09.408Z,72.03
2019-01-18T10:25:38.494Z,72.12
2019-01-18T10:28:07.932Z,71.96
2019-01-18T10:30:37.109Z,70.77
2019-01-18T10:33:06.332Z,70.57
2019-01-18T10:35:35.422Z,70.76
2019-01-18T10:38:04.724Z,68.21
2019-01-18T10:40:34.497Z,69.03
2019-01-18T10:43:03.566Z,71.01
2019-01-18T10:45:32.640Z,70.29
2019-01-18T10:48:01.729Z,68.92
2019-01-18T10:50:32.832Z,71.75
2019-01-18T10:53:02.418Z,72.46
2019-01-18T10:55:31.544Z,70.82
2019-01-18T10:58:00.623Z,69.28
2019-01-18T11:00:33.343Z,68.55
2019-01-18T11:03:02.630Z,68.35
2019-01-18T11:05:31.846Z,67.52
2019-01-18T11:08:01.142Z,66.25
2019-01-18T11:10:30.442Z,66.53
2019-01-18T11:12:59.573Z,66.49
2019-01-18T11:15:30.687Z,66.63
2019-01-18T11:18:00.122Z,68.12
2019-01-18T11:20:39.145Z,69.31
2019-01-18T11:23:08.203Z,70.33
2019-01-18T11:25:37.352Z,71.03
2019-01-18T11:28:06.552Z,72.97
2019-01-18T11:30:35.927Z,72.73
2019-01-18T11:33:04.998Z,73.59
2019-01-18T11:35:34.374Z,73.45
2019-01-18T11:38:03.520Z,73.89
2019-01-18T11:40:33.068Z,73.12
2019-01-18T11:43:02.803Z,72.41
2019-01-18T11:45:32.319Z,72.40
2019-01-18T11:48:01.406Z,72.25
2019-01-18T11:50:30.668Z,72.13
2019-01-18T11:52:59.762Z,72.73
2019-01-18T11:55:29.000Z,72.22
2019-01-18T11:57:58.351Z,71.89
2019-01-18T12:00:28.083Z,72.51
2019-01-18T12:02:57.228Z,73.05
2019-01-18T12:05:26.746Z,72.61
2019-01-18T12:07:56.061Z,72.66
2019-01-18T12:10:27.497Z,72.62
2019-01-18T12:12:56.784Z,72.68
2019-01-18T12:15:26.074Z,72.71
2019-01-18T12:17:55.175Z,73.69
2019-01-18T12:20:30.163Z,73.78
2019-01-18T12:22:59.275Z,73.51
2019-01-18T12:25:28.453Z,72.94
2019-01-18T12:27:57.669Z,72.92
2019-01-18T12:30:32.720Z,73.50
2019-01-18T12:33:01.955Z,73.91
2019-01-18T12:35:31.320Z,74.79
2019-01-18T12:38:00.396Z,75.31
2019-01-18T12:40:29.648Z,72.99
2019-01-18T12:42:59.051Z,73.71
2019-01-18T12:45:28.346Z,73.19
2019-01-18T12:47:57.434Z,73.64
2019-01-18T12:50:34.628Z,72.92
2019-01-18T12:53:04.137Z,73.39
2019-01-18T12:55:33.740Z,72.29
2019-01-18T12:58:02.898Z,72.29
2019-01-18T13:00:32.226Z,72.43
2019-01-18T13:03:01.423Z,72.52
2019-01-18T13:05:39.855Z,70.66
2019-01-18T13:08:09.172Z,70.10
2019-01-18T13:10:38.429Z,69.59
2019-01-18T13:13:07.853Z,70.68
2019-01-18T13:15:40.545Z,70.25
2019-01-18T13:18:09.714Z,70.25
2019-01-18T13:20:38.912Z,69.18
2019-01-18T13:23:08.202Z,67.35
2019-01-18T13:25:37.263Z,67.76
2019-01-18T13:28:06.366Z,68.11
2019-01-18T13:30:35.463Z,66.43
2019-01-18T13:33:05.621Z,67.06
2019-01-18T13:35:35.079Z,66.87
2019-01-18T13:38:04.570Z,67.84
2019-01-18T13:40:33.716Z,69.05
2019-01-18T13:43:03.626Z,69.05
2019-01-18T13:45:33.028Z,69.15
2019-01-18T13:48:02.345Z,69.45
2019-01-18T13:50:32.402Z,70.42
2019-01-18T13:53:03.011Z,70.99
2019-01-18T13:55:33.051Z,70.99
2019-01-18T13:58:02.438Z,73.34
2019-01-18T14:00:32.115Z,73.23
2019-01-18T14:03:02.667Z,72.29
2019-01-18T14:05:32.021Z,72.25
2019-01-18T14:08:01.180Z,71.61
2019-01-18T14:10:30.356Z,71.61
2019-01-18T14:12:59.663Z,71.96
2019-01-18T14:15:29.158Z,72.29
2019-01-18T14:17:58.727Z,72.29
2019-01-18T14:20:28.015Z,72.19
2019-01-18T14:22:58.505Z,72.92
2019-01-18T14:25:28.168Z,72.98
2019-01-18T14:27:57.785Z,72.53
2019-01-18T14:30:27.405Z,72.20
2019-01-18T14:32:58.911Z,73.51
2019-01-18T14:35:28.450Z,74.77
2019-01-18T14:37:58.685Z,73.07
2019-01-18T14:40:28.026Z,73.27
2019-01-18T14:42:59.854Z,73.21
2019-01-18T14:45:32.112Z,73.31
2019-01-18T14:48:01.861Z,73.42
2019-01-18T14:50:31.513Z,73.43
2019-01-18T14:53:00.953Z,73.59
2019-01-18T14:55:30.210Z,73.74
2019-01-18T14:57:59.584Z,74.12
2019-01-18T15:00:33.212Z,75.56
2019-01-18T15:03:03.578Z,75.56
2019-01-18T15:05:33.367Z,75.98
2019-01-18T15:08:02.749Z,75.64
2019-01-18T15:10:31.903Z,75.64
2019-01-18T15:13:03.916Z,76.07
2019-01-18T15:15:33.167Z,76.87
2019-01-18T15:18:02.428Z,76.87
2019-01-18T15:20:32.308Z,77.61
2019-01-18T15:23:02.015Z,77.61
2019-01-18T15:25:31.339Z,77.36
2019-01-18T15:28:01.034Z,77.02
2019-01-18T15:30:31.378Z,77.04
2019-01-18T15:33:00.886Z,77.09
2019-01-18T15:35:32.840Z,78.50
2019-01-18T15:38:03.323Z,78.50
2019-01-18T15:40:34.605Z,78.55
2019-01-18T15:43:04.747Z,78.72
2019-01-18T15:45:34.377Z,79.43
2019-01-18T15:48:03.726Z,79.43
2019-01-18T15:50:35.405Z,79.83
2019-01-18T15:53:05.129Z,80.87
2019-01-18T15:55:35.290Z,81.31
2019-01-18T15:58:05.258Z,81.24
2019-01-18T16:00:56.768Z,81.71
2019-01-18T16:03:54.787Z,81.71
2019-01-18T16:06:28.625Z,81.43
2019-01-18T16:09:15.885Z,81.43
2019-01-18T16:12:07.286Z,80.96
2019-01-18T16:14:38.478Z,81.51
2019-01-18T16:17:13.333Z,81.51
2019-01-18T16:19:42.734Z,81.81
2019-01-18T16:22:11.882Z,81.99
2019-01-18T16:24:41.525Z,81.86
2019-01-18T16:27:10.751Z,81.98
2019-01-18T16:29:39.898Z,82.30
2019-01-18T16:32:09.277Z,82.30
2019-01-18T16:34:38.605Z,82.55
2019-01-18T16:37:08.301Z,83.03
2019-01-18T16:39:38.236Z,83.85
2019-01-18T16:42:09.773Z,84.21
2019-01-18T16:44:39.449Z,84.10
2019-01-18T16:47:10.252Z,84.06
2019-01-18T16:49:39.653Z,83.76
2019-01-18T16:52:09.026Z,83.55
2019-01-18T16:54:38.887Z,83.55
2019-01-18T16:57:08.115Z,83.76
2019-01-18T16:59:38.103Z,84.04
2019-01-18T17:02:07.478Z,84.04
2019-01-18T17:04:36.609Z,85.65
2019-01-18T17:07:05.898Z,85.65
2019-01-18T17:09:35.166Z,86.54
2019-01-18T17:12:04.606Z,86.54
2019-01-18T17:14:34.924Z,86.84
2019-01-18T17:17:04.945Z,87.02
2019-01-18T17:19:34.149Z,87.00
2019-01-18T17:22:03.759Z,86.96
2019-01-18T17:24:33.182Z,86.87
2019-01-18T17:27:02.788Z,86.71
2019-01-18T17:29:32.352Z,86.62
2019-01-18T17:32:02.016Z,86.62
2019-01-18T17:34:31.292Z,86.51
2019-01-18T17:37:10.006Z,86.64
2019-01-18T17:40:12.489Z,86.60
2019-01-18T17:43:18.624Z,86.12
2019-01-18T17:46:27.926Z,85.98
2019-01-18T17:49:48.744Z,86.70
2019-01-18T17:52:51.941Z,86.43
2019-01-18T17:56:02.176Z,86.48
2019-01-18T17:59:21.576Z,86.84
2019-01-18T18:02:16.685Z,86.92
2019-01-18T18:05:07.885Z,87.25
2019-01-18T18:08:06.056Z,87.74
2019-01-18T18:11:27.623Z,87.96
2019-01-18T18:14:40.311Z,88.14
2019-01-18T18:17:34.989Z,88.37
2019-01-18T18:20:39.942Z,88.32
2019-01-18T18:23:31.800Z,88.44
2019-01-18T18:26:40.850Z,88.34
2019-01-18T18:29:43.249Z,88.37
2019-01-18T18:32:37.429Z,88.88
2019-01-18T18:35:56.711Z,89.00
2019-01-18T18:39:09.937Z,89.19
2019-01-18T18:42:19.182Z,89.31
2019-01-18T18:45:32.310Z,89.35
2019-01-18T18:48:27.918Z,89.49
2019-01-18T18:51:50.330Z,89.66
2019-01-18T18:55:15.863Z,89.64
2019-01-18T18:58:41.503Z,89.67
2019-01-18T19:01:43.167Z,90.20
2019-01-18T19:05:08.570Z,90.35
2019-01-18T19:08:11.991Z,90.35
2019-01-18T19:10:51.733Z,90.50
2019-01-18T19:14:08.000Z,90.77
2019-01-18T19:16:47.198Z,91.01
2019-01-18T19:19:39.180Z,91.08
2019-01-18T19:22:39.049Z,91.14
2019-01-18T19:25:45.128Z,91.19
2019-01-18T19:28:40.533Z,91.34
2019-01-18T19:31:46.832Z,91.20
2019-01-18T19:35:06.656Z,91.20
2019-01-18T19:38:22.186Z,91.01
2019-01-18T19:41:31.367Z,91.46
2019-01-18T19:44:33.319Z,91.25
2019-01-18T19:47:40.436Z,91.04
2019-01-18T19:50:50.928Z,91.32
2019-01-18T19:53:44.550Z,91.12
2019-01-18T19:56:34.397Z,91.11
2019-01-18T19:59:50.856Z,91.27
2019-01-18T20:02:45.253Z,91.37
2019-01-18T20:05:43.823Z,91.60
2019-01-18T20:08:39.213Z,91.79
2019-01-18T20:11:44.147Z,91.76
2019-01-18T20:14:48.049Z,91.51
2019-01-18T20:17:55.048Z,91.53
2019-01-18T20:21:00.906Z,91.90
2019-01-18T20:24:18.833Z,91.84
2019-01-18T20:27:41.430Z,91.88
2019-01-18T20:30:34.648Z,91.63
2019-01-18T20:33:55.634Z,91.88
2019-01-18T20:36:39.984Z,92.20
2019-01-18T20:39:55.766Z,91.99
2019-01-18T20:43:21.714Z,92.15
2019-01-18T20:46:44.810Z,92.17
2019-01-18T20:49:47.957Z,92.54
2019-01-18T20:53:04.413Z,93.10
2019-01-18T20:56:10.865Z,93.49
2019-01-18T20:58:52.677Z,93.65
2019-01-18T21:01:57.860Z,93.38
2019-01-18T21:05:10.634Z,93.14
2019-01-18T21:08:10.670Z,93.20
2019-01-18T21:11:29.968Z,93.40
2019-01-18T21:14:38.041Z,93.37
2019-01-18T21:17:37.115Z,93.36
2019-01-18T21:20:29.678Z,93.35
2019-01-18T21:23:31.526Z,93.57
2019-01-18T21:26:14.057Z,93.80
2019-01-18T21:29:25.275Z,93.81
2019-01-18T21:33:01.390Z,93.66
2019-01-18T21:36:00.961Z,93.58
2019-01-18T21:38:58.780Z,94.21
2019-01-18T21:42:00.218Z,94.17
2019-01-18T21:44:54.290Z,94.05
2019-01-18T21:47:52.046Z,93.69
2019-01-18T21:50:33.530Z,93.82
2019-01-18T21:53:31.986Z,94.16
2019-01-18T21:56:36.151Z,94.85
2019-01-18T21:59:36.473Z,94.85
2019-01-18T22:02:55.635Z,94.82
2019-01-18T22:06:18.048Z,94.92
2019-01-18T22:09:08.896Z,95.23
2019-01-18T22:12:16.554Z,95.11
2019-01-18T22:15:11.538Z,95.44
2019-01-18T22:18:30.863Z,95.22
2019-01-18T22:21:41.223Z,95.19
2019-01-18T22:24:29.507Z,94.97
2019-01-18T22:27:25.558Z,95.07
2019-01-18T22:30:18.744Z,95.08
2019-01-18T22:33:32.081Z,94.93
2019-01-18T22:36:35.966Z,95.10
2019-01-18T22:39:42.903Z,94.90
2019-01-18T22:42:50.980Z,95.33
2019-01-18T22:46:12.532Z,95.08
2019-01-18T22:49:14.114Z,95.64
2019-01-18T22:52:17.382Z,95.38
2019-01-18T22:55:31.465Z,95.73
2019-01-18T22:59:06.013Z,95.49
2019-01-18T23:01:58.663Z,96.02
2019-01-18T23:04:58.658Z,96.25
2019-01-18T23:07:54.149Z,96.34
2019-01-18T23:11:05.861Z,98.86
2019-01-18T23:14:19.601Z,98.16
2019-01-18T23:17:24.680Z,99.30
2019-01-18T23:20:56.515Z,98.83
2019-01-18T23:24:05.061Z,100.00
2019-01-18T23:27:25.850Z,98.77
2019-01-18T23:30:19.529Z,95.87
2019-01-18T23:33:34.966Z,93.95
2019-01-18T23:36:16.367Z,91.99
2019-01-18T23:39:28.890Z,92.22
2019-01-18T23:42:37.954Z,92.68
2019-01-18T23:45:59.105Z,93.69
2019-01-18T23:49:07.935Z,94.24
2019-01-18T23:52:35.460Z,94.38
2019-01-18T23:55:49.189Z,94.07
2019-01-18T23:58:59.839Z,95.16
